Impacts TAF Board INFO
FOR SITUATIONAL AWARENESS. NOT TO BE USED FOR FLIGHT PLANNING PURPOSES.
IDs:

KORD - Chicago/O'Hare Intl, IL, US

Issued at 0303 UTC 16 Aug 2018
Updated at 0308 UTC 16 Aug 2018
Potential Impact None Slight Moderate High
Time0251Z 16/04Z 16/05Z 16/06Z 16/07Z 16/08Z 16/09Z 16/10Z 16/11Z 16/12Z 16/13Z 16/14Z 16/15Z 16/16Z>>
Type OBS PRVL PRVL PRVL PRVL PRVL PRVL PRVL PRVL PRVL PRVL PRVL PRVL PRVL
VIS 10 >6 >6 >6 >6 >6 3 3 3 3 3 3 >6 >6
CIG 170 35 35 20 20 20 7 7 7 7 7 7 15 15
Cover OVC BKN BKN OVC OVC OVC OVC OVC OVC OVC OVC OVC BKN BKN
FltCat VFR VFR VFR MVFR MVFR MVFR IFR IFR IFR IFR IFR IFR MVFR MVFR
WX -RA VCSH VCSH -- -- -- BR BR BR BR BR BR -- --
WDir 180 180 180 VRB VRB VRB VRB VRB VRB VRB VRB VRB 10 10
WSpd 8 8 8 3 3 3 3 3 3 3 3 3 5 5
WGst -- -- -- -- -- -- -- -- -- -- -- -- -- --

Raw TAF
KORD 160303Z 1603/1706 18008KT P6SM VCSH SCT020 BKN035
  FM160600 VRB03KT P6SM SCT010 OVC020
  FM160900 VRB03KT 3SM BR BKN007 OVC010
  FM161500 01005KT P6SM BKN015
  FM161800 05008KT P6SM VCSH BKN035
  FM170100 03005KT P6SM SCT035 BKN080


Raw METAR
KORD 160251Z 18008KT 10SM -RA SCT060 OVC170 24/20 A2993 RMK AO2 RAB45 TSE12 SLP128 P0000 60001 T02390200 51009
KORD 160218Z 16008KT 10SM BKN035 BKN049 OVC170 24/20 A2992 RMK AO2 TSE12 T02440200
KORD 160151Z 20008KT 10SM TS FEW022 SCT028CB OVC033 25/20 A2992 RMK AO2 RAE0055 TSB14 SLP127 OCNL LTGICCG NW-N TS NW-N MOV N P0000 T02500200
KORD 160118Z 00000KT 10SM TS BKN022 OVC028CB 24/22 A2992 RMK AO2 LTG DSNT NW RAE0055 TSB14 OCNL LTGICCG W-NW TS W-NW MOV N P0000 T02440217
KORD 160051Z 22004KT 10SM VCTS -RA BKN027 BKN040 OVC070 26/22 A2991 RMK AO2 LTG DSNT W AND NW RAB25 TSE16 SLP123 P0001 T02560217
KORD 160043Z 19006KT 9SM VCTS -RA BKN027 OVC040 26/21 A2991 RMK AO2 LTG DSNT W RAB25 TSE16 P0001 T02560211
KORD 160031Z 18007KT 7SM -RA SCT027 OVC040 26/21 A2991 RMK AO2 LTG DSNT W RAB25 TSE16 P0000 T02560211

METAR Board
Radar Display
Forecast Discussion

FOR SITUATIONAL AWARENESS. NOT TO BE USED FOR FLIGHT PLANNING PURPOSES.